createdAt,value
2022-08-21T00:01:51.433Z,11.92
2022-08-21T00:04:22.381Z,11.88
2022-08-21T00:06:50.512Z,11.88
2022-08-21T00:09:17.153Z,11.83
2022-08-21T00:11:44.389Z,11.81
2022-08-21T00:14:12.281Z,11.71
2022-08-21T00:16:40.117Z,11.77
2022-08-21T00:19:07.211Z,11.72
2022-08-21T00:21:35.559Z,11.74
2022-08-21T00:24:02.337Z,11.69
2022-08-21T00:26:28.843Z,11.65
2022-08-21T00:28:55.309Z,11.70
2022-08-21T00:31:22.746Z,11.65
2022-08-21T00:33:49.404Z,11.57
2022-08-21T00:36:16.519Z,11.63
2022-08-21T00:38:43.041Z,11.54
2022-08-21T00:41:37.419Z,11.56
2022-08-21T00:43:58.021Z,11.65
2022-08-21T00:46:28.181Z,11.61
2022-08-21T00:48:58.946Z,11.57
2022-08-21T00:51:51.312Z,11.53
2022-08-21T00:54:21.418Z,11.47
2022-08-21T00:56:53.765Z,11.52
2022-08-21T00:59:24.198Z,11.45
2022-08-21T01:01:52.372Z,11.40
2022-08-21T01:04:20.636Z,11.37
2022-08-21T01:06:47.624Z,11.39
2022-08-21T01:09:14.707Z,11.36
2022-08-21T01:11:43.875Z,11.30
2022-08-21T01:14:13.124Z,11.31
2022-08-21T01:16:43.324Z,11.29
2022-08-21T01:19:09.968Z,11.28
2022-08-21T01:21:38.667Z,11.24
2022-08-21T01:24:06.236Z,11.22
2022-08-21T01:26:36.864Z,11.21
2022-08-21T01:29:08.508Z,11.24
2022-08-21T01:31:34.975Z,11.25
2022-08-21T01:34:02.208Z,11.28
2022-08-21T01:36:28.841Z,11.26
2022-08-21T01:38:55.788Z,11.17
2022-08-21T01:41:22.400Z,11.12
2022-08-21T01:43:49.213Z,11.18
2022-08-21T01:46:16.076Z,11.16
2022-08-21T01:48:42.849Z,11.21
2022-08-21T01:51:09.525Z,11.15
2022-08-21T01:53:37.697Z,11.16
2022-08-21T01:56:12.202Z,11.19
2022-08-21T01:58:41.990Z,11.20
2022-08-21T02:01:10.392Z,11.10
2022-08-21T02:03:37.387Z,11.17
2022-08-21T02:06:06.255Z,11.15
2022-08-21T02:08:32.988Z,11.11
2022-08-21T02:10:59.797Z,11.11
2022-08-21T02:13:26.365Z,11.14
2022-08-21T02:15:52.882Z,11.11
2022-08-21T02:18:19.419Z,11.01
2022-08-21T02:20:48.722Z,10.98
2022-08-21T02:23:26.859Z,10.95
2022-08-21T02:25:59.056Z,10.97
2022-08-21T02:28:26.180Z,11.05
2022-08-21T02:30:55.904Z,11.02
2022-08-21T02:33:23.520Z,11.01
2022-08-21T02:35:50.819Z,11.04
2022-08-21T02:38:21.395Z,11.09
2022-08-21T02:40:51.155Z,11.10
2022-08-21T02:43:19.155Z,10.99
2022-08-21T02:45:47.524Z,10.93
2022-08-21T02:48:16.274Z,10.92
2022-08-21T02:50:47.069Z,10.90
2022-08-21T02:53:17.233Z,10.99
2022-08-21T02:55:46.504Z,11.01
2022-08-21T02:58:13.781Z,11.04
2022-08-21T03:00:40.780Z,10.96
2022-08-21T03:03:07.571Z,11.09
2022-08-21T03:05:36.257Z,11.01
2022-08-21T03:08:05.957Z,10.97
2022-08-21T03:10:32.466Z,10.90
2022-08-21T03:12:59.117Z,10.94
2022-08-21T03:15:25.971Z,10.99
2022-08-21T03:17:55.515Z,10.99
2022-08-21T03:20:24.983Z,10.93
2022-08-21T03:22:53.275Z,10.93
2022-08-21T03:25:21.380Z,10.91
2022-08-21T03:27:54.039Z,10.86
2022-08-21T03:30:23.475Z,10.94
2022-08-21T03:32:51.666Z,10.99
2022-08-21T03:35:19.363Z,10.98
2022-08-21T03:37:46.928Z,10.91
2022-08-21T03:40:16.139Z,10.95
2022-08-21T03:42:43.059Z,10.95
2022-08-21T03:45:10.895Z,10.96
2022-08-21T03:47:37.446Z,10.93
2022-08-21T03:50:05.631Z,10.90
2022-08-21T03:52:32.104Z,10.86
2022-08-21T03:54:58.576Z,10.83
2022-08-21T03:57:25.035Z,10.88
2022-08-21T03:59:51.496Z,10.85
2022-08-21T04:02:22.289Z,10.85
2022-08-21T04:04:48.808Z,10.82
2022-08-21T04:07:15.275Z,10.81
2022-08-21T04:09:41.763Z,10.78
2022-08-21T04:12:08.707Z,10.76
2022-08-21T04:14:35.166Z,10.81
2022-08-21T04:17:02.116Z,10.82
2022-08-21T04:19:28.597Z,10.83
2022-08-21T04:21:56.466Z,10.89
2022-08-21T04:24:22.915Z,10.88
2022-08-21T04:26:49.420Z,10.87
2022-08-21T04:29:15.896Z,10.96
2022-08-21T04:31:44.489Z,10.94
2022-08-21T04:34:10.957Z,10.98
2022-08-21T04:36:37.448Z,11.07
2022-08-21T04:39:04.085Z,11.31
2022-08-21T04:41:31.540Z,11.52
2022-08-21T04:43:58.081Z,11.60
2022-08-21T04:46:24.925Z,11.71
2022-08-21T04:48:51.531Z,11.96
2022-08-21T04:51:26.388Z,12.04
2022-08-21T04:53:59.961Z,12.13
2022-08-21T04:56:32.664Z,12.18
2022-08-21T04:59:04.628Z,12.34
2022-08-21T05:01:35.468Z,12.22
2022-08-21T05:04:05.384Z,12.23
2022-08-21T05:06:35.772Z,12.43
2022-08-21T05:09:02.824Z,12.53
2022-08-21T05:11:31.397Z,12.69
2022-08-21T05:13:58.119Z,12.85
2022-08-21T05:16:31.697Z,12.90
2022-08-21T05:19:04.304Z,12.99
2022-08-21T05:21:30.800Z,13.08
2022-08-21T05:23:57.277Z,13.08
2022-08-21T05:26:23.744Z,13.15
2022-08-21T05:28:50.490Z,13.43
2022-08-21T05:31:17.499Z,13.73
2022-08-21T05:33:44.115Z,13.74
2022-08-21T05:36:10.616Z,14.00
2022-08-21T05:38:37.082Z,14.12
2022-08-21T05:41:03.676Z,14.30
2022-08-21T05:43:30.292Z,14.61
2022-08-21T05:45:56.750Z,14.86
2022-08-21T05:48:25.161Z,14.84
2022-08-21T05:50:52.658Z,14.81
2022-08-21T05:53:20.726Z,14.85
2022-08-21T05:55:49.058Z,14.95
2022-08-21T05:58:18.612Z,15.16
2022-08-21T06:00:46.571Z,15.14
2022-08-21T06:03:19.220Z,15.37
2022-08-21T06:05:46.646Z,15.67
2022-08-21T06:08:13.612Z,15.71
2022-08-21T06:10:40.168Z,15.80
2022-08-21T06:13:06.661Z,15.90
2022-08-21T06:15:33.562Z,15.94
2022-08-21T06:18:00.245Z,16.19
2022-08-21T06:20:26.892Z,16.36
2022-08-21T06:22:53.373Z,16.39
2022-08-21T06:25:20.240Z,16.26
2022-08-21T06:27:47.322Z,16.51
2022-08-21T06:30:14.314Z,16.59
2022-08-21T06:32:40.879Z,16.68
2022-08-21T06:35:07.848Z,16.64
2022-08-21T06:37:34.584Z,16.82
2022-08-21T06:40:01.539Z,16.96
2022-08-21T06:42:29.023Z,17.07
2022-08-21T06:44:55.795Z,17.25
2022-08-21T06:47:22.369Z,17.23
2022-08-21T06:49:48.816Z,17.43
2022-08-21T06:52:16.368Z,17.45
2022-08-21T06:54:43.372Z,17.38
2022-08-21T06:57:10.250Z,17.35
2022-08-21T06:59:36.732Z,17.35
2022-08-21T07:02:04.048Z,17.53
2022-08-21T07:04:30.935Z,17.64
2022-08-21T07:06:57.409Z,17.55
2022-08-21T07:09:24.788Z,17.58
2022-08-21T07:11:54.460Z,17.63
2022-08-21T07:14:20.917Z,17.74
2022-08-21T07:16:48.393Z,17.88
2022-08-21T07:19:14.912Z,18.07
2022-08-21T07:21:41.543Z,18.17
2022-08-21T07:24:08.272Z,18.19
2022-08-21T07:26:34.716Z,18.30
2022-08-21T07:29:01.195Z,18.47
2022-08-21T07:31:29.307Z,18.39
2022-08-21T07:33:55.967Z,18.66
2022-08-21T07:36:22.843Z,18.59
2022-08-21T07:38:52.867Z,18.78
2022-08-21T07:41:24.365Z,18.78
2022-08-21T07:43:52.787Z,18.77
2022-08-21T07:46:20.433Z,18.87
2022-08-21T07:48:47.201Z,19.04
2022-08-21T07:51:15.493Z,19.05
2022-08-21T07:53:42.227Z,19.11
2022-08-21T07:56:09.373Z,19.19
2022-08-21T07:58:35.871Z,19.43
2022-08-21T08:01:02.586Z,19.16
2022-08-21T08:03:29.464Z,19.40
2022-08-21T08:05:57.666Z,19.48
2022-08-21T08:08:24.696Z,19.45
2022-08-21T08:10:51.781Z,19.66
2022-08-21T08:13:18.354Z,19.70
2022-08-21T08:15:44.845Z,20.01
2022-08-21T08:18:11.621Z,19.99
2022-08-21T08:20:38.122Z,19.88
2022-08-21T08:23:04.655Z,19.94
2022-08-21T08:25:36.163Z,19.94
2022-08-21T08:28:16.560Z,19.96
2022-08-21T08:30:45.561Z,20.05
2022-08-21T08:33:12.181Z,19.99
2022-08-21T08:35:39.034Z,20.31
2022-08-21T08:38:06.676Z,20.16
2022-08-21T08:40:52.804Z,20.38
2022-08-21T08:43:19.783Z,20.33
2022-08-21T08:45:51.365Z,20.40
2022-08-21T08:48:53.126Z,20.48
2022-08-21T08:51:38.364Z,20.44
2022-08-21T08:54:22.531Z,20.52
2022-08-21T08:56:51.321Z,20.46
2022-08-21T08:59:21.950Z,20.63
2022-08-21T09:01:48.750Z,20.43
2022-08-21T09:04:24.837Z,20.44
2022-08-21T09:07:02.401Z,20.77
2022-08-21T09:09:57.253Z,20.74
2022-08-21T09:13:09.991Z,20.80
2022-08-21T09:15:52.277Z,20.64
2022-08-21T09:18:46.477Z,20.70
2022-08-21T09:21:34.009Z,20.71
2022-08-21T09:24:23.874Z,20.86
2022-08-21T09:27:10.012Z,21.00
2022-08-21T09:29:40.852Z,21.03
2022-08-21T09:32:20.769Z,21.27
2022-08-21T09:35:04.526Z,21.44
2022-08-21T09:37:34.630Z,21.52
2022-08-21T09:40:02.104Z,21.39
2022-08-21T09:42:34.816Z,21.51
2022-08-21T09:45:16.710Z,21.62
2022-08-21T09:47:44.935Z,21.67
2022-08-21T09:50:14.928Z,21.69
2022-08-21T09:52:55.460Z,21.73
2022-08-21T09:56:06.244Z,21.67
2022-08-21T09:58:38.206Z,21.91
2022-08-21T10:01:07.187Z,22.01
2022-08-21T10:03:34.176Z,22.42
2022-08-21T10:06:06.501Z,23.09
2022-08-21T10:08:38.084Z,22.75
2022-08-21T10:11:15.381Z,22.30
2022-08-21T10:14:09.159Z,22.19
2022-08-21T10:16:38.584Z,22.16
2022-08-21T10:19:14.075Z,22.10
2022-08-21T10:21:54.574Z,21.89
2022-08-21T10:24:33.294Z,22.25
2022-08-21T10:27:07.856Z,22.14
2022-08-21T10:29:48.764Z,22.35
2022-08-21T10:32:37.420Z,22.58
2022-08-21T10:35:31.422Z,22.63
2022-08-21T10:37:57.885Z,22.17
2022-08-21T10:41:07.416Z,22.24
2022-08-21T10:44:00.544Z,22.60
2022-08-21T10:46:26.933Z,22.72
2022-08-21T10:49:15.625Z,23.06
2022-08-21T10:52:10.028Z,23.51
2022-08-21T10:54:49.880Z,24.22
2022-08-21T10:57:31.938Z,25.01
2022-08-21T11:00:14.005Z,24.78
2022-08-21T11:02:47.683Z,25.56
2022-08-21T11:05:29.849Z,25.21
2022-08-21T11:08:06.167Z,24.24
2022-08-21T11:11:00.362Z,26.40
2022-08-21T11:13:49.814Z,26.10
2022-08-21T11:16:32.478Z,27.39
2022-08-21T11:19:17.776Z,26.99
2022-08-21T11:21:53.328Z,26.55
2022-08-21T11:24:42.557Z,27.54
2022-08-21T11:27:16.046Z,27.85
2022-08-21T11:29:48.768Z,28.61
2022-08-21T11:32:46.146Z,27.96
2022-08-21T11:35:47.691Z,26.94
2022-08-21T11:38:29.066Z,27.63
2022-08-21T11:41:14.452Z,28.55
2022-08-21T11:43:54.668Z,28.36
2022-08-21T11:46:32.221Z,28.76
2022-08-21T11:49:27.522Z,29.40
2022-08-21T11:52:18.670Z,27.29
2022-08-21T11:54:50.202Z,27.75
2022-08-21T11:57:36.147Z,29.05
2022-08-21T12:00:11.779Z,29.63
2022-08-21T12:02:45.095Z,29.22
2022-08-21T12:05:43.423Z,29.16
2022-08-21T12:08:13.607Z,27.02
2022-08-21T12:10:46.917Z,27.95
2022-08-21T12:13:40.140Z,28.93
2022-08-21T12:16:15.873Z,28.35
2022-08-21T12:18:43.927Z,27.89
2022-08-21T12:21:28.774Z,28.00
2022-08-21T12:24:17.670Z,27.20
2022-08-21T12:26:50.265Z,29.17
2022-08-21T12:29:24.215Z,29.90
2022-08-21T12:32:02.544Z,29.62
2022-08-21T12:35:15.373Z,28.66
2022-08-21T12:38:00.880Z,30.17
2022-08-21T12:40:32.059Z,29.75
2022-08-21T12:43:03.988Z,29.87
2022-08-21T12:45:40.621Z,30.93
2022-08-21T12:48:32.350Z,31.23
2022-08-21T12:51:13.250Z,30.61
2022-08-21T12:53:42.763Z,30.69
2022-08-21T12:56:12.817Z,31.09
2022-08-21T12:58:45.687Z,31.30
2022-08-21T13:01:38.162Z,31.59
2022-08-21T13:04:11.936Z,32.51
2022-08-21T13:06:41.208Z,33.03
2022-08-21T13:09:11.801Z,32.39
2022-08-21T13:11:40.936Z,32.02
2022-08-21T13:14:18.380Z,30.61
2022-08-21T13:16:46.493Z,27.83
2022-08-21T13:19:23.304Z,26.01
2022-08-21T13:21:52.000Z,25.20
2022-08-21T13:24:44.216Z,26.68
2022-08-21T13:27:31.329Z,26.89
2022-08-21T13:30:18.939Z,25.32
2022-08-21T13:32:53.411Z,24.89
2022-08-21T13:35:24.854Z,25.00
2022-08-21T13:37:52.804Z,25.04
2022-08-21T13:40:41.056Z,26.29
2022-08-21T13:43:14.603Z,25.34
2022-08-21T13:45:54.228Z,26.36
2022-08-21T13:48:24.231Z,28.90
2022-08-21T13:50:51.133Z,29.13
2022-08-21T13:53:26.657Z,28.64
2022-08-21T13:55:55.398Z,29.62
2022-08-21T13:58:46.279Z,29.49
2022-08-21T14:01:23.830Z,31.00
2022-08-21T14:03:53.992Z,31.79
2022-08-21T14:06:24.114Z,33.58
2022-08-21T14:08:54.483Z,31.18
2022-08-21T14:11:21.601Z,31.84
2022-08-21T14:14:03.814Z,30.80
2022-08-21T14:16:44.528Z,32.08
2022-08-21T14:19:20.812Z,32.24
2022-08-21T14:21:47.897Z,34.27
2022-08-21T14:24:36.689Z,32.79
2022-08-21T14:27:08.599Z,29.61
2022-08-21T14:29:42.111Z,27.69
2022-08-21T14:32:24.602Z,26.32
2022-08-21T14:34:52.936Z,24.70
2022-08-21T14:37:22.053Z,26.75
2022-08-21T14:39:48.542Z,26.02
2022-08-21T14:42:15.052Z,27.56
2022-08-21T14:44:41.994Z,27.93
2022-08-21T14:47:09.621Z,27.21
2022-08-21T14:49:36.162Z,26.68
2022-08-21T14:52:02.856Z,25.06
2022-08-21T14:54:32.325Z,24.92
2022-08-21T14:57:06.312Z,24.64
2022-08-21T14:59:33.975Z,24.41
2022-08-21T15:02:01.077Z,24.68
2022-08-21T15:04:27.654Z,25.46
2022-08-21T15:06:54.154Z,29.98
2022-08-21T15:09:20.612Z,32.31
2022-08-21T15:11:47.203Z,31.25
2022-08-21T15:14:20.213Z,32.13
2022-08-21T15:16:47.177Z,30.19
2022-08-21T15:19:13.666Z,29.86
2022-08-21T15:21:40.156Z,29.07
2022-08-21T15:24:06.793Z,29.35
2022-08-21T15:26:33.499Z,27.83
2022-08-21T15:29:00.709Z,28.00
2022-08-21T15:31:28.496Z,26.28
2022-08-21T15:33:55.027Z,25.60
2022-08-21T15:36:21.701Z,25.40
2022-08-21T15:38:48.186Z,24.51
2022-08-21T15:41:15.056Z,24.44
2022-08-21T15:43:53.511Z,24.31
2022-08-21T15:46:21.678Z,24.26
2022-08-21T15:48:48.554Z,24.11
2022-08-21T15:51:17.602Z,25.47
2022-08-21T15:53:45.205Z,25.48
2022-08-21T15:56:25.689Z,25.25
2022-08-21T15:58:54.219Z,26.23
2022-08-21T16:01:24.622Z,27.83
2022-08-21T16:03:54.832Z,28.54
2022-08-21T16:06:38.550Z,27.90
2022-08-21T16:09:08.921Z,27.50
2022-08-21T16:11:35.837Z,28.70
2022-08-21T16:14:02.324Z,28.89
2022-08-21T16:16:29.988Z,29.26
2022-08-21T16:18:58.288Z,28.88
2022-08-21T16:21:24.940Z,29.09
2022-08-21T16:23:51.521Z,26.92
2022-08-21T16:26:18.439Z,25.89
2022-08-21T16:28:46.414Z,25.22
2022-08-21T16:31:15.366Z,24.42
2022-08-21T16:33:50.591Z,24.30
2022-08-21T16:36:20.806Z,25.17
2022-08-21T16:38:48.405Z,25.54
2022-08-21T16:41:18.203Z,26.94
2022-08-21T16:43:49.958Z,26.53
2022-08-21T16:46:17.763Z,25.67
2022-08-21T16:48:47.098Z,25.63
2022-08-21T16:51:14.991Z,24.52
2022-08-21T16:53:43.007Z,25.92
2022-08-21T16:56:12.100Z,25.42
2022-08-21T16:58:42.533Z,23.33
2022-08-21T17:01:12.766Z,22.99
2022-08-21T17:03:42.293Z,22.37
2022-08-21T17:06:10.376Z,22.67
2022-08-21T17:08:37.729Z,22.95
2022-08-21T17:11:08.264Z,23.19
2022-08-21T17:13:35.099Z,23.30
2022-08-21T17:16:01.871Z,22.85
2022-08-21T17:18:28.534Z,22.01
2022-08-21T17:20:55.151Z,22.56
2022-08-21T17:23:21.997Z,22.31
2022-08-21T17:25:51.033Z,21.59
2022-08-21T17:28:23.421Z,21.76
2022-08-21T17:30:51.336Z,21.34
2022-08-21T17:33:19.515Z,21.25
2022-08-21T17:35:46.019Z,21.13
2022-08-21T17:38:14.950Z,20.83
2022-08-21T17:40:41.695Z,20.65
2022-08-21T17:43:11.662Z,20.86
2022-08-21T17:45:40.217Z,20.53
2022-08-21T17:48:07.075Z,20.46
2022-08-21T17:50:33.962Z,20.47
2022-08-21T17:53:00.633Z,20.47
2022-08-21T17:55:28.342Z,20.71
2022-08-21T17:57:56.280Z,20.47
2022-08-21T18:00:25.489Z,20.40
2022-08-21T18:03:01.848Z,20.38
2022-08-21T18:05:29.369Z,20.38
2022-08-21T18:07:57.757Z,20.49
2022-08-21T18:10:24.952Z,20.52
2022-08-21T18:12:51.907Z,20.33
2022-08-21T18:15:20.245Z,20.16
2022-08-21T18:17:49.454Z,20.24
2022-08-21T18:20:18.837Z,20.15
2022-08-21T18:22:45.728Z,20.28
2022-08-21T18:25:12.927Z,20.46
2022-08-21T18:27:42.599Z,20.53
2022-08-21T18:30:10.382Z,20.46
2022-08-21T18:32:37.138Z,20.39
2022-08-21T18:35:06.213Z,20.24
2022-08-21T18:37:32.894Z,20.17
2022-08-21T18:39:59.789Z,19.98
2022-08-21T18:42:29.012Z,19.77
2022-08-21T18:45:00.828Z,19.73
2022-08-21T18:47:37.318Z,19.73
2022-08-21T18:52:54.934Z,19.93
2022-08-21T18:55:23.042Z,19.81
2022-08-21T18:57:51.589Z,19.47
2022-08-21T19:00:24.292Z,19.46
2022-08-21T19:02:51.364Z,19.57
2022-08-21T19:05:19.508Z,19.55
2022-08-21T19:07:47.028Z,19.36
2022-08-21T19:13:05.080Z,19.43
2022-08-21T19:15:36.171Z,19.20
2022-08-21T19:18:03.619Z,19.21
2022-08-21T19:20:35.023Z,19.00
2022-08-21T19:23:02.637Z,19.01
2022-08-21T19:25:33.268Z,18.82
2022-08-21T19:28:03.293Z,18.75
2022-08-21T19:30:31.076Z,18.88
2022-08-21T19:32:57.921Z,18.68
2022-08-21T19:35:26.832Z,18.66
2022-08-21T19:37:53.530Z,18.65
2022-08-21T19:40:22.408Z,18.56
2022-08-21T19:42:49.188Z,18.32
2022-08-21T19:45:15.750Z,18.32
2022-08-21T19:47:46.687Z,18.37
2022-08-21T19:50:17.843Z,18.15
2022-08-21T19:52:51.499Z,18.08
2022-08-21T19:55:19.263Z,18.33
2022-08-21T19:57:46.093Z,18.27
2022-08-21T20:00:13.436Z,18.22
2022-08-21T20:02:48.081Z,17.91
2022-08-21T20:08:04.111Z,17.67
2022-08-21T20:10:31.110Z,17.55
2022-08-21T20:12:57.973Z,17.39
2022-08-21T20:15:24.795Z,17.42
2022-08-21T20:17:54.645Z,17.28
2022-08-21T20:20:21.376Z,17.26
2022-08-21T20:22:49.876Z,17.20
2022-08-21T20:25:16.551Z,17.32
2022-08-21T20:27:48.016Z,17.38
2022-08-21T20:30:15.587Z,17.24
2022-08-21T20:32:49.288Z,17.49
2022-08-21T20:35:16.009Z,17.55
2022-08-21T20:37:42.667Z,17.42
2022-08-21T20:40:12.583Z,17.40
2022-08-21T20:42:49.901Z,17.26
2022-08-21T20:45:22.386Z,17.04
2022-08-21T20:47:52.664Z,16.90
2022-08-21T20:50:24.754Z,16.93
2022-08-21T20:52:53.888Z,16.90
2022-08-21T20:55:29.270Z,16.83
2022-08-21T20:58:12.660Z,16.81
2022-08-21T21:00:42.117Z,16.71
2022-08-21T21:03:30.250Z,16.61
2022-08-21T21:06:09.332Z,16.45
2022-08-21T21:08:46.697Z,16.39
2022-08-21T21:11:17.820Z,16.29
2022-08-21T21:13:52.779Z,16.16
2022-08-21T21:16:33.053Z,16.05
2022-08-21T21:19:20.926Z,16.00
2022-08-21T21:21:55.663Z,15.88
2022-08-21T21:24:43.151Z,15.80
2022-08-21T21:27:20.078Z,15.75
2022-08-21T21:29:58.724Z,15.71
2022-08-21T21:32:27.970Z,15.61
2022-08-21T21:34:54.636Z,15.58
2022-08-21T21:37:31.776Z,15.47
2022-08-21T21:40:19.177Z,15.36
2022-08-21T21:42:49.278Z,15.33
2022-08-21T21:45:23.276Z,15.28
2022-08-21T21:48:09.557Z,15.20
2022-08-21T21:51:00.839Z,15.20
2022-08-21T21:54:09.440Z,15.13
2022-08-21T21:57:19.405Z,14.99
2022-08-21T22:00:01.580Z,14.97
2022-08-21T22:03:01.010Z,15.04
2022-08-21T22:05:56.274Z,15.13
2022-08-21T22:08:39.427Z,15.21
2022-08-21T22:11:24.510Z,15.23
2022-08-21T22:14:13.519Z,15.29
2022-08-21T22:16:41.558Z,15.27
2022-08-21T22:19:08.929Z,15.27
2022-08-21T22:21:47.253Z,15.32
2022-08-21T22:24:24.885Z,15.34
2022-08-21T22:26:59.592Z,15.47
2022-08-21T22:29:49.332Z,15.38
2022-08-21T22:32:45.659Z,15.42
2022-08-21T22:35:24.235Z,15.47
2022-08-21T22:37:51.961Z,15.38
2022-08-21T22:40:27.780Z,15.42
2022-08-21T22:43:16.412Z,15.42
2022-08-21T22:46:04.045Z,15.44
2022-08-21T22:48:36.399Z,15.45
2022-08-21T22:51:30.029Z,15.43
2022-08-21T22:54:00.175Z,15.38
2022-08-21T22:56:45.945Z,15.35
2022-08-21T22:59:29.424Z,15.27
2022-08-21T23:02:00.251Z,15.19
2022-08-21T23:04:27.576Z,15.15
2022-08-21T23:07:00.316Z,15.20
2022-08-21T23:09:27.451Z,15.19
2022-08-21T23:11:56.608Z,15.16
2022-08-21T23:14:24.900Z,15.10
2022-08-21T23:17:10.181Z,15.04
2022-08-21T23:19:59.545Z,14.92
2022-08-21T23:22:39.104Z,14.86
2022-08-21T23:25:41.438Z,14.81
2022-08-21T23:28:25.936Z,14.69
2022-08-21T23:31:11.629Z,14.69
2022-08-21T23:34:06.087Z,14.57
2022-08-21T23:37:16.169Z,14.44
2022-08-21T23:40:12.979Z,14.42
2022-08-21T23:42:59.405Z,14.38
2022-08-21T23:45:40.881Z,14.29
2022-08-21T23:48:52.748Z,14.20
2022-08-21T23:51:34.099Z,14.12
2022-08-21T23:54:34.947Z,14.12
2022-08-21T23:57:13.467Z,14.10
